createdAt,value
2022-10-30T00:01:52.127Z,4.55
2022-10-30T00:04:18.644Z,5.18
2022-10-30T00:06:45.059Z,5.75
2022-10-30T00:09:11.658Z,5.90
2022-10-30T00:11:38.074Z,6.20
2022-10-30T00:14:04.527Z,5.22
2022-10-30T00:16:30.879Z,9.55
2022-10-30T00:18:57.283Z,11.65
2022-10-30T00:21:23.702Z,10.82
2022-10-30T00:23:53.052Z,12.60
2022-10-30T00:26:25.038Z,9.07
2022-10-30T00:28:53.027Z,8.63
2022-10-30T00:31:20.892Z,10.18
2022-10-30T00:33:51.676Z,8.70
2022-10-30T00:36:18.887Z,9.13
2022-10-30T00:38:45.383Z,8.43
2022-10-30T00:41:21.302Z,8.23
2022-10-30T00:43:48.316Z,8.00
2022-10-30T00:46:24.157Z,7.15
2022-10-30T00:49:15.881Z,7.28
2022-10-30T00:51:51.755Z,7.00
2022-10-30T00:54:19.385Z,8.60
2022-10-30T00:56:47.690Z,6.07
2022-10-30T00:59:22.948Z,7.25
2022-10-30T01:01:50.835Z,5.97
2022-10-30T01:04:17.850Z,6.50
2022-10-30T01:06:48.457Z,5.47
2022-10-30T01:09:15.914Z,5.43
2022-10-30T01:11:42.352Z,5.32
2022-10-30T01:14:11.042Z,5.07
2022-10-30T01:16:59.269Z,5.18
2022-10-30T01:19:44.125Z,5.18
2022-10-30T01:22:19.235Z,4.78
2022-10-30T01:25:20.939Z,4.35
2022-10-30T01:28:04.426Z,5.03
2022-10-30T01:30:46.152Z,4.60
2022-10-30T01:33:30.800Z,5.30
2022-10-30T01:36:11.254Z,4.82
2022-10-30T01:38:47.231Z,4.30
2022-10-30T01:41:14.875Z,4.22
2022-10-30T01:43:46.025Z,3.85
2022-10-30T01:46:37.937Z,3.88
2022-10-30T01:49:19.620Z,4.20
2022-10-30T01:52:06.323Z,3.83
2022-10-30T01:54:51.852Z,4.05
2022-10-30T01:57:46.319Z,4.05
2022-10-30T02:00:15.679Z,5.28
2022-10-30T02:02:48.828Z,4.28
2022-10-30T02:10:27.374Z,4.40
2022-10-30T02:12:54.373Z,4.68
2022-10-30T02:15:23.937Z,4.28
2022-10-30T02:17:50.831Z,4.90
2022-10-30T02:20:19.813Z,4.32
2022-10-30T02:22:47.561Z,4.75
2022-10-30T02:25:14.918Z,4.13
2022-10-30T02:27:41.491Z,5.05
2022-10-30T02:30:11.476Z,4.85
2022-10-30T02:32:38.426Z,4.40
2022-10-30T02:35:06.105Z,4.78
2022-10-30T02:37:32.720Z,5.38
2022-10-30T02:39:59.446Z,4.93
2022-10-30T02:42:25.852Z,5.25
2022-10-30T02:44:53.694Z,4.45
2022-10-30T02:47:20.187Z,4.72
2022-10-30T02:49:46.587Z,4.75
2022-10-30T02:52:13.014Z,5.18
2022-10-30T02:54:41.536Z,5.05
2022-10-30T02:57:09.408Z,5.30
2022-10-30T02:59:37.569Z,5.18
2022-10-30T03:02:04.180Z,5.40
2022-10-30T03:04:30.730Z,4.82
2022-10-30T03:06:57.082Z,6.55
2022-10-30T03:09:23.911Z,5.15
2022-10-30T03:11:50.348Z,5.50
2022-10-30T03:14:16.850Z,5.20
2022-10-30T03:16:43.243Z,4.85
2022-10-30T03:19:10.054Z,4.90
2022-10-30T03:21:36.509Z,5.97
2022-10-30T03:24:03.026Z,5.78
2022-10-30T03:26:29.592Z,5.97
2022-10-30T03:29:07.008Z,6.57
2022-10-30T03:31:33.659Z,6.68
2022-10-30T03:34:13.973Z,6.23
2022-10-30T03:36:41.611Z,7.15
2022-10-30T03:39:08.140Z,5.95
2022-10-30T03:41:35.475Z,6.03
2022-10-30T03:44:01.937Z,7.13
2022-10-30T03:46:28.417Z,5.55
2022-10-30T03:49:04.150Z,6.13
2022-10-30T03:51:30.588Z,6.20
2022-10-30T03:53:57.049Z,6.40
2022-10-30T03:56:23.525Z,7.53
2022-10-30T03:58:54.323Z,8.70
2022-10-30T04:01:22.512Z,9.43
2022-10-30T04:03:54.544Z,8.77
2022-10-30T04:06:22.018Z,8.70
2022-10-30T04:08:48.527Z,6.60
2022-10-30T04:11:15.000Z,6.78
2022-10-30T04:13:41.474Z,7.13
2022-10-30T04:16:08.020Z,8.52
2022-10-30T04:18:34.538Z,7.75
2022-10-30T04:21:02.115Z,7.25
2022-10-30T04:23:28.809Z,7.18
2022-10-30T04:25:55.951Z,7.97
2022-10-30T04:28:22.901Z,8.38
2022-10-30T04:30:49.585Z,7.18
2022-10-30T04:33:17.373Z,8.07
2022-10-30T04:35:43.862Z,7.50
2022-10-30T04:38:15.509Z,7.80
2022-10-30T04:40:43.987Z,8.13
2022-10-30T04:43:13.354Z,8.05
2022-10-30T04:45:41.088Z,8.48
2022-10-30T04:48:11.820Z,7.53
2022-10-30T04:50:38.854Z,7.35
2022-10-30T04:53:10.200Z,8.57
2022-10-30T04:58:03.199Z,7.88
2022-10-30T05:00:32.673Z,7.90
2022-10-30T05:03:15.975Z,7.55
2022-10-30T05:05:43.327Z,8.35
2022-10-30T05:08:09.744Z,7.85
2022-10-30T05:10:40.379Z,9.10
2022-10-30T05:13:06.941Z,8.52
2022-10-30T05:15:33.338Z,8.30
2022-10-30T05:18:00.062Z,8.23
2022-10-30T05:20:27.117Z,7.28
2022-10-30T05:22:57.820Z,7.75
2022-10-30T05:25:25.735Z,7.13
2022-10-30T05:28:01.293Z,7.57
2022-10-30T05:30:30.706Z,8.55
2022-10-30T05:32:59.850Z,8.18
2022-10-30T05:35:28.134Z,8.20
2022-10-30T05:37:54.927Z,8.25
2022-10-30T05:40:22.044Z,8.13
2022-10-30T05:42:49.085Z,6.80
2022-10-30T05:45:16.982Z,8.35
2022-10-30T05:47:44.724Z,7.90
2022-10-30T05:50:12.462Z,7.68
2022-10-30T05:52:46.100Z,8.20
2022-10-30T05:55:16.116Z,8.02
2022-10-30T05:57:59.454Z,7.18
2022-10-30T06:00:28.141Z,6.55
2022-10-30T06:03:05.658Z,5.72
2022-10-30T06:05:36.844Z,5.43
2022-10-30T06:08:04.784Z,6.22
2022-10-30T06:10:33.643Z,6.45
2022-10-30T06:13:32.675Z,5.25
2022-10-30T06:16:02.937Z,6.17
2022-10-30T06:18:47.010Z,4.97
2022-10-30T06:21:13.575Z,5.38
2022-10-30T06:24:06.672Z,5.60
2022-10-30T06:26:41.990Z,6.22
2022-10-30T06:29:11.309Z,5.53
2022-10-30T06:31:37.982Z,6.35
2022-10-30T06:34:05.328Z,5.75
2022-10-30T06:36:34.109Z,6.55
2022-10-30T06:39:00.559Z,5.80
2022-10-30T06:41:34.672Z,6.32
2022-10-30T06:44:09.220Z,7.47
2022-10-30T06:46:36.877Z,9.07
2022-10-30T06:49:03.309Z,7.45
2022-10-30T06:51:31.800Z,7.60
2022-10-30T06:53:59.627Z,7.93
2022-10-30T06:56:37.932Z,7.50
2022-10-30T06:59:10.650Z,8.38
2022-10-30T07:01:45.886Z,8.45
2022-10-30T07:04:15.493Z,8.40
2022-10-30T07:06:43.414Z,7.57
2022-10-30T07:09:10.366Z,7.90
2022-10-30T07:11:37.605Z,7.43
2022-10-30T07:14:15.638Z,7.53
2022-10-30T07:17:02.318Z,7.43
2022-10-30T07:19:30.500Z,7.22
2022-10-30T07:21:57.617Z,7.50
2022-10-30T07:24:24.078Z,7.18
2022-10-30T07:27:06.729Z,6.10
2022-10-30T07:29:49.232Z,5.28
2022-10-30T07:32:21.278Z,5.40
2022-10-30T07:35:06.818Z,5.47
2022-10-30T07:37:52.003Z,4.95
2022-10-30T07:40:18.915Z,5.40
2022-10-30T07:42:57.986Z,7.22
2022-10-30T07:45:32.079Z,5.07
2022-10-30T07:48:17.250Z,6.63
2022-10-30T07:50:46.563Z,5.10
2022-10-30T07:53:13.873Z,5.10
2022-10-30T07:55:42.654Z,5.45
2022-10-30T07:58:27.434Z,6.20
2022-10-30T08:01:13.731Z,5.20
2022-10-30T08:03:40.254Z,7.00
2022-10-30T08:06:13.952Z,5.75
2022-10-30T08:08:43.420Z,5.25
2022-10-30T08:11:30.424Z,5.70
2022-10-30T08:13:58.925Z,5.03
2022-10-30T08:16:25.470Z,4.40
2022-10-30T08:18:52.064Z,4.68
2022-10-30T08:21:21.830Z,4.80
2022-10-30T08:23:58.297Z,5.20
2022-10-30T08:26:27.677Z,5.60
2022-10-30T08:28:54.100Z,3.80
2022-10-30T08:31:20.668Z,4.55
2022-10-30T08:36:46.794Z,5.35
2022-10-30T08:39:16.656Z,4.72
2022-10-30T08:42:05.710Z,4.50
2022-10-30T08:44:40.773Z,5.38
2022-10-30T08:47:25.643Z,5.80
2022-10-30T08:49:52.826Z,6.55
2022-10-30T08:52:22.141Z,4.78
2022-10-30T08:54:54.312Z,5.32
2022-10-30T08:57:22.988Z,5.10
2022-10-30T08:59:50.589Z,5.13
2022-10-30T09:02:45.864Z,5.15
2022-10-30T09:05:30.833Z,5.22
2022-10-30T09:08:15.872Z,4.45
2022-10-30T09:11:02.431Z,4.88
2022-10-30T09:13:29.292Z,5.15
2022-10-30T09:16:01.465Z,4.68
2022-10-30T09:18:30.230Z,4.43
2022-10-30T09:20:57.282Z,4.53
2022-10-30T09:23:24.082Z,4.97
2022-10-30T09:25:58.469Z,4.70
2022-10-30T09:28:38.178Z,4.43
2022-10-30T09:31:23.013Z,4.63
2022-10-30T09:33:49.538Z,4.05
2022-10-30T09:36:35.022Z,4.45
2022-10-30T09:39:01.416Z,4.82
2022-10-30T09:41:58.893Z,4.90
2022-10-30T09:48:13.765Z,4.40
2022-10-30T09:51:10.524Z,4.25
2022-10-30T09:54:02.488Z,4.80
2022-10-30T09:56:49.820Z,4.50
2022-10-30T09:59:36.247Z,4.38
2022-10-30T10:02:32.410Z,4.32
2022-10-30T10:05:12.156Z,4.20
2022-10-30T10:08:03.854Z,3.75
2022-10-30T10:10:57.965Z,3.85
2022-10-30T10:13:32.855Z,4.78
2022-10-30T10:16:07.513Z,5.38
2022-10-30T10:18:43.738Z,6.30
2022-10-30T10:21:21.799Z,5.28
2022-10-30T10:23:50.579Z,5.20
2022-10-30T10:26:29.023Z,4.55
2022-10-30T10:29:18.191Z,4.70
2022-10-30T10:31:57.779Z,4.13
2022-10-30T10:34:55.262Z,3.95
2022-10-30T10:37:30.832Z,4.38
2022-10-30T10:40:17.893Z,4.75
2022-10-30T10:43:05.825Z,4.47
2022-10-30T10:45:52.544Z,4.68
2022-10-30T10:48:37.002Z,4.82
2022-10-30T10:51:21.287Z,4.68
2022-10-30T10:53:57.797Z,4.65
2022-10-30T10:56:37.673Z,4.78
2022-10-30T10:59:11.444Z,4.88
2022-10-30T11:01:46.018Z,5.13
2022-10-30T11:04:32.768Z,4.95
2022-10-30T11:07:12.068Z,4.97
2022-10-30T11:09:39.710Z,4.25
2022-10-30T11:12:06.565Z,4.30
2022-10-30T11:14:32.952Z,4.40
2022-10-30T11:17:32.543Z,4.10
2022-10-30T11:20:02.815Z,3.60
2022-10-30T11:22:39.898Z,3.95
2022-10-30T11:25:30.336Z,3.75
2022-10-30T11:28:00.607Z,4.05
2022-10-30T11:30:28.569Z,4.32
2022-10-30T11:32:57.221Z,4.15
2022-10-30T11:35:25.062Z,3.80
2022-10-30T11:38:12.048Z,4.25
2022-10-30T11:40:38.478Z,3.80
2022-10-30T11:43:05.839Z,3.33
2022-10-30T11:45:41.739Z,3.72
2022-10-30T11:48:23.225Z,3.80
2022-10-30T11:50:52.101Z,3.10
2022-10-30T11:53:32.660Z,3.92
2022-10-30T11:55:59.258Z,3.10
2022-10-30T11:58:32.196Z,3.53
2022-10-30T12:01:00.149Z,3.42
2022-10-30T12:03:35.636Z,2.88
2022-10-30T12:06:26.859Z,2.85
2022-10-30T12:09:20.664Z,3.35
2022-10-30T12:11:47.909Z,3.33
2022-10-30T12:14:22.725Z,3.10
2022-10-30T12:16:52.142Z,3.42
2022-10-30T12:19:21.752Z,3.95
2022-10-30T12:21:53.851Z,3.40
2022-10-30T12:24:35.668Z,3.17
2022-10-30T12:27:04.548Z,2.80
2022-10-30T12:30:07.375Z,3.53
2022-10-30T12:32:42.332Z,3.03
2022-10-30T12:35:18.423Z,3.60
2022-10-30T12:37:45.192Z,3.55
2022-10-30T12:40:20.275Z,2.80
2022-10-30T12:42:55.172Z,2.95
2022-10-30T12:45:27.896Z,2.90
2022-10-30T12:48:03.610Z,4.15
2022-10-30T12:50:37.413Z,3.17
2022-10-30T12:53:15.683Z,3.15
2022-10-30T12:55:54.385Z,3.67
2022-10-30T12:58:43.813Z,3.08
2022-10-30T13:01:26.932Z,2.80
2022-10-30T13:03:59.096Z,3.05
2022-10-30T13:06:34.332Z,3.53
2022-10-30T13:09:24.936Z,3.63
2022-10-30T13:11:58.629Z,3.00
2022-10-30T13:14:42.281Z,3.05
2022-10-30T13:17:12.932Z,3.17
2022-10-30T13:22:13.809Z,3.25
2022-10-30T13:24:50.896Z,3.13
2022-10-30T13:27:41.176Z,3.53
2022-10-30T13:30:20.441Z,4.05
2022-10-30T13:33:02.750Z,3.45
2022-10-30T13:35:53.802Z,4.68
2022-10-30T13:40:57.882Z,3.15
2022-10-30T13:43:41.882Z,3.60
2022-10-30T13:46:18.241Z,4.18
2022-10-30T13:48:56.883Z,2.80
2022-10-30T13:51:34.098Z,3.45
2022-10-30T13:54:06.495Z,3.72
2022-10-30T13:56:34.155Z,3.40
2022-10-30T13:59:28.241Z,4.25
2022-10-30T14:02:12.241Z,3.40
2022-10-30T14:04:51.464Z,3.22
2022-10-30T14:07:46.240Z,3.42
2022-10-30T14:10:34.487Z,3.25
2022-10-30T14:13:44.779Z,3.20
2022-10-30T14:16:44.690Z,3.42
2022-10-30T14:19:13.335Z,3.67
2022-10-30T14:21:53.500Z,2.70
2022-10-30T14:24:32.172Z,3.22
2022-10-30T14:27:04.578Z,3.60
2022-10-30T14:29:34.319Z,3.30
2022-10-30T14:32:13.094Z,4.25
2022-10-30T14:34:51.695Z,3.92
2022-10-30T14:37:38.016Z,3.08
2022-10-30T14:40:44.097Z,4.10
2022-10-30T14:43:44.601Z,3.85
2022-10-30T14:46:32.286Z,6.15
2022-10-30T14:49:15.591Z,6.05
2022-10-30T14:51:51.571Z,5.55
2022-10-30T14:54:29.278Z,3.92
2022-10-30T14:56:55.666Z,3.25
2022-10-30T14:59:40.169Z,3.95
2022-10-30T15:02:12.758Z,3.88
2022-10-30T15:05:17.510Z,3.53
2022-10-30T15:07:51.300Z,4.13
2022-10-30T15:10:32.293Z,3.35
2022-10-30T15:13:16.724Z,3.90
2022-10-30T15:15:46.207Z,3.95
2022-10-30T15:18:19.234Z,4.45
2022-10-30T15:20:51.963Z,3.42
2022-10-30T15:23:29.736Z,3.78
2022-10-30T15:25:59.112Z,4.20
2022-10-30T15:28:28.961Z,4.07
2022-10-30T15:31:05.331Z,4.03
2022-10-30T15:33:37.102Z,3.85
2022-10-30T15:36:04.480Z,4.07
2022-10-30T15:38:31.072Z,3.72
2022-10-30T15:41:01.177Z,4.20
2022-10-30T15:43:34.256Z,4.90
2022-10-30T15:46:00.750Z,4.13
2022-10-30T15:48:30.540Z,4.85
2022-10-30T15:51:15.331Z,4.38
2022-10-30T15:53:57.359Z,3.63
2022-10-30T15:56:33.738Z,4.32
2022-10-30T15:59:03.482Z,4.40
2022-10-30T16:01:33.351Z,3.72
2022-10-30T16:04:00.825Z,4.03
2022-10-30T16:06:29.888Z,4.70
2022-10-30T16:08:56.439Z,4.95
2022-10-30T16:11:24.469Z,5.97
2022-10-30T16:13:51.369Z,5.28
2022-10-30T16:16:26.189Z,5.60
2022-10-30T16:18:54.212Z,5.70
2022-10-30T16:21:23.737Z,6.05
2022-10-30T16:23:53.760Z,6.07
2022-10-30T16:26:35.951Z,6.55
2022-10-30T16:29:18.358Z,5.50
2022-10-30T16:31:49.703Z,5.72
2022-10-30T16:34:31.661Z,6.53
2022-10-30T16:36:58.923Z,5.80
2022-10-30T16:39:26.667Z,5.80
2022-10-30T16:41:56.883Z,5.75
2022-10-30T16:44:28.830Z,6.73
2022-10-30T16:47:00.910Z,6.10
2022-10-30T16:49:30.222Z,7.68
2022-10-30T16:52:06.458Z,7.60
2022-10-30T16:54:39.538Z,7.65
2022-10-30T16:57:16.059Z,6.55
2022-10-30T16:59:49.550Z,8.05
2022-10-30T17:02:20.513Z,7.68
2022-10-30T17:07:25.056Z,7.53
2022-10-30T17:09:55.589Z,7.45
2022-10-30T17:12:29.303Z,7.28
2022-10-30T17:15:10.592Z,7.95
2022-10-30T17:17:39.853Z,7.35
2022-10-30T17:20:30.886Z,7.90
2022-10-30T17:23:16.610Z,7.88
2022-10-30T17:25:45.503Z,9.02
2022-10-30T17:28:27.457Z,9.07
2022-10-30T17:30:54.826Z,9.38
2022-10-30T17:33:23.475Z,10.05
2022-10-30T17:35:50.553Z,9.73
2022-10-30T17:38:17.737Z,9.85
2022-10-30T17:40:44.576Z,10.15
2022-10-30T17:43:15.308Z,9.38
2022-10-30T17:45:43.361Z,10.48
2022-10-30T17:48:16.488Z,10.43
2022-10-30T17:50:44.122Z,9.35
2022-10-30T17:53:21.611Z,8.50
2022-10-30T17:55:56.818Z,8.75
2022-10-30T17:58:23.396Z,9.32
2022-10-30T18:00:49.905Z,9.63
2022-10-30T18:03:16.320Z,9.23
2022-10-30T18:05:43.710Z,9.65
2022-10-30T18:08:10.111Z,9.85
2022-10-30T18:10:36.535Z,10.30
2022-10-30T18:13:03.309Z,9.82
2022-10-30T18:15:40.843Z,11.15
2022-10-30T18:18:07.265Z,12.68
2022-10-30T18:20:33.999Z,11.25
2022-10-30T18:23:01.108Z,10.30
2022-10-30T18:25:32.042Z,10.27
2022-10-30T18:27:58.729Z,10.32
2022-10-30T18:30:25.809Z,10.90
2022-10-30T18:32:52.229Z,11.07
2022-10-30T18:35:45.749Z,10.00
2022-10-30T18:38:13.291Z,11.38
2022-10-30T18:40:40.533Z,9.93
2022-10-30T18:43:10.721Z,9.63
2022-10-30T18:45:40.540Z,9.50
2022-10-30T18:48:08.425Z,9.20
2022-10-30T18:50:35.802Z,8.55
2022-10-30T18:53:03.311Z,9.10
2022-10-30T18:55:37.700Z,7.82
2022-10-30T18:58:05.255Z,8.15
2022-10-30T19:00:44.833Z,8.90
2022-10-30T19:03:18.528Z,9.68
2022-10-30T19:05:50.098Z,10.20
2022-10-30T19:08:16.565Z,8.88
2022-10-30T19:10:45.489Z,9.57
2022-10-30T19:13:19.912Z,10.38
2022-10-30T19:15:49.276Z,9.48
2022-10-30T19:18:16.762Z,7.75
2022-10-30T19:21:03.164Z,9.77
2022-10-30T19:23:29.717Z,9.43
2022-10-30T19:25:56.844Z,9.20
2022-10-30T19:28:23.305Z,9.68
2022-10-30T19:30:50.220Z,10.38
2022-10-30T19:33:18.256Z,10.82
2022-10-30T19:35:44.949Z,9.82
2022-10-30T19:38:12.968Z,10.48
2022-10-30T19:40:40.728Z,11.35
2022-10-30T19:43:07.576Z,10.57
2022-10-30T19:45:34.365Z,9.18
2022-10-30T19:48:09.749Z,8.95
2022-10-30T19:50:40.964Z,10.05
2022-10-30T19:55:36.832Z,10.48
2022-10-30T19:58:05.814Z,9.50
2022-10-30T20:00:34.687Z,9.25
2022-10-30T20:03:02.184Z,10.02
2022-10-30T20:05:37.524Z,8.55
2022-10-30T20:08:11.203Z,9.57
2022-10-30T20:10:40.934Z,9.68
2022-10-30T20:13:08.787Z,10.02
2022-10-30T20:15:35.977Z,10.05
2022-10-30T20:18:03.120Z,10.52
2022-10-30T20:20:32.443Z,11.20
2022-10-30T20:22:59.054Z,11.55
2022-10-30T20:25:27.259Z,15.70
2022-10-30T20:28:05.740Z,17.17
2022-10-30T20:30:33.512Z,13.13
2022-10-30T20:33:00.293Z,13.48
2022-10-30T20:35:27.013Z,11.30
2022-10-30T20:38:01.419Z,9.70
2022-10-30T20:40:29.364Z,10.20
2022-10-30T20:43:02.889Z,10.52
2022-10-30T20:45:29.849Z,11.52
2022-10-30T20:47:56.440Z,11.00
2022-10-30T20:50:23.417Z,11.18
2022-10-30T20:52:49.851Z,12.00
2022-10-30T20:55:16.397Z,11.88
2022-10-30T20:57:42.889Z,11.85
2022-10-30T21:00:11.990Z,11.73
2022-10-30T21:02:38.428Z,10.57
2022-10-30T21:05:11.778Z,11.82
2022-10-30T21:07:50.040Z,12.00
2022-10-30T21:10:16.479Z,10.30
2022-10-30T21:12:42.933Z,10.85
2022-10-30T21:15:09.645Z,10.00
2022-10-30T21:17:36.034Z,9.20
2022-10-30T21:20:02.659Z,9.10
2022-10-30T21:22:29.162Z,9.30
2022-10-30T21:24:55.547Z,9.13
2022-10-30T21:27:21.897Z,9.35
2022-10-30T21:29:48.346Z,8.93
2022-10-30T21:32:14.761Z,10.60
2022-10-30T21:34:41.126Z,10.20
2022-10-30T21:37:07.495Z,20.63
2022-10-30T21:39:33.977Z,12.68
2022-10-30T21:42:00.314Z,10.63
2022-10-30T21:44:26.759Z,10.30
2022-10-30T21:46:53.165Z,9.32
2022-10-30T21:49:19.663Z,9.52
2022-10-30T21:51:47.847Z,8.55
2022-10-30T21:54:15.417Z,9.55
2022-10-30T21:56:41.781Z,8.60
2022-10-30T21:59:10.164Z,8.60
2022-10-30T22:01:38.136Z,8.40
2022-10-30T22:04:06.954Z,8.27
2022-10-30T22:06:34.003Z,8.30
2022-10-30T22:09:00.406Z,8.38
2022-10-30T22:11:28.734Z,8.75
2022-10-30T22:13:56.060Z,10.00
2022-10-30T22:16:23.498Z,8.35
2022-10-30T22:18:49.962Z,8.07
2022-10-30T22:21:16.588Z,9.48
2022-10-30T22:23:43.334Z,8.30
2022-10-30T22:26:15.234Z,8.68
2022-10-30T22:28:42.769Z,8.13
2022-10-30T22:31:13.148Z,8.40
2022-10-30T22:33:40.242Z,8.03
2022-10-30T22:36:11.324Z,8.30
2022-10-30T22:38:37.722Z,8.43
2022-10-30T22:41:14.427Z,8.32
2022-10-30T22:43:42.152Z,8.25
2022-10-30T22:46:09.498Z,7.75
2022-10-30T22:48:36.249Z,8.15
2022-10-30T22:51:05.723Z,7.97
2022-10-30T22:53:35.509Z,8.05
2022-10-30T22:56:32.593Z,7.93
2022-10-30T22:59:04.334Z,7.57
2022-10-30T23:01:32.982Z,7.68
2022-10-30T23:04:01.027Z,7.70
2022-10-30T23:06:29.020Z,6.47
2022-10-30T23:08:57.286Z,6.60
2022-10-30T23:11:24.731Z,7.15
2022-10-30T23:13:54.491Z,6.93
2022-10-30T23:16:24.283Z,8.02
2022-10-30T23:18:51.702Z,9.55
2022-10-30T23:21:20.890Z,9.95
2022-10-30T23:23:48.003Z,9.98
2022-10-30T23:26:20.666Z,10.10
2022-10-30T23:28:48.649Z,9.98
2022-10-30T23:31:25.748Z,8.48
2022-10-30T23:33:55.237Z,8.20
2022-10-30T23:36:22.141Z,8.48
2022-10-30T23:38:59.920Z,7.57
2022-10-30T23:41:29.989Z,8.45
2022-10-30T23:43:58.916Z,8.63
2022-10-30T23:46:25.713Z,6.60
2022-10-30T23:48:52.095Z,7.40
2022-10-30T23:51:18.712Z,8.07
2022-10-30T23:53:45.183Z,8.05
2022-10-30T23:56:12.138Z,7.65
2022-10-30T23:58:38.546Z,7.53
